Time;durP1;ratioP1;P1;durP2;ratioP2;P2;SDS_P1;SDS_P2;PMS_P1;PMS_P2;Temp;Humidity;BMP_temperature;BMP_pressure;BME280_temperature;BME280_humidity;BME280_pressure;Samples;Min_cycle;Max_cycle;Signal;HPM_P1;HPM_P2
2022/09/05 00:01:06;;;;;;;3.85;2.90;;;15.50;99.90;;;;;;5031642;28;20029;-86
2022/09/05 00:04:19;;;;;;;4.03;3.10;;;15.50;99.90;;;;;;5046674;28;20025;-86
2022/09/05 00:06:58;;;;;;;4.20;3.10;;;15.50;99.90;;;;;;5001690;28;20055;-86
2022/09/05 00:09:53;;;;;;;4.90;3.28;;;15.50;99.90;;;;;;5046964;28;20057;-86
2022/09/05 00:12:20;;;;;;;3.33;2.83;;;15.40;99.90;;;;;;5029260;28;20037;-86
2022/09/05 00:15:14;;;;;;;3.28;2.83;;;15.50;99.90;;;;;;5036400;28;20025;-86
2022/09/05 00:17:49;;;;;;;3.85;3.05;;;15.50;99.90;;;;;;5017033;28;20032;-85
2022/09/05 00:20:47;;;;;;;3.42;3.00;;;15.50;99.90;;;;;;5022035;28;20392;-86
2022/09/05 00:23:40;;;;;;;7.07;3.45;;;15.50;99.90;;;;;;5041633;28;20673;-86
2022/09/05 00:26:12;;;;;;;4.90;2.95;;;15.40;99.90;;;;;;5017447;28;20454;-86
2022/09/05 00:29:10;;;;;;;3.20;2.78;;;15.40;99.90;;;;;;5020658;28;20052;-86
2022/09/05 00:31:51;;;;;;;4.75;2.97;;;15.30;99.90;;;;;;5031299;28;20041;-86
2022/09/05 00:35:02;;;;;;;3.92;3.30;;;15.30;99.90;;;;;;5039078;28;20025;-86
2022/09/05 00:37:34;;;;;;;5.55;3.13;;;15.20;99.90;;;;;;5019449;28;20487;-87
2022/09/05 00:40:32;;;;;;;3.35;3.03;;;15.20;99.90;;;;;;5050641;28;20024;-85
2022/09/05 00:43:02;;;;;;;4.60;2.95;;;15.10;99.90;;;;;;5033788;28;20543;-87
2022/09/05 00:45:47;;;;;;;3.90;3.03;;;15.10;99.90;;;;;;5050177;28;20040;-86
2022/09/05 00:48:33;;;;;;;4.40;2.95;;;15.20;99.90;;;;;;5049263;28;20035;-86
2022/09/05 00:51:36;;;;;;;4.00;3.10;;;15.10;99.90;;;;;;5036466;28;20028;-86
2022/09/05 00:54:21;;;;;;;4.18;3.05;;;15.10;99.90;;;;;;5055865;28;20037;-87
2022/09/05 00:57:03;;;;;;;4.30;2.95;;;15.10;99.90;;;;;;5050436;28;20071;-87
2022/09/05 00:59:56;;;;;;;4.15;3.17;;;15.10;99.90;;;;;;5029676;28;20094;-86
2022/09/05 01:02:50;;;;;;;3.15;2.85;;;15.00;99.90;;;;;;5049124;28;20032;-86
2022/09/05 01:05:45;;;;;;;6.78;3.45;;;15.00;99.90;;;;;;5032482;28;20123;-86
2022/09/05 01:08:41;;;;;;;4.38;3.28;;;15.10;99.90;;;;;;4991333;28;20037;-86
2022/09/05 01:11:37;;;;;;;4.10;2.95;;;15.00;99.90;;;;;;5054432;28;20037;-86
2022/09/05 01:14:14;;;;;;;5.03;2.72;;;15.00;99.90;;;;;;5046897;28;20036;-87
2022/09/05 01:17:04;;;;;;;4.30;3.33;;;15.00;99.90;;;;;;5038387;28;20025;-87
2022/09/05 01:20:06;;;;;;;6.38;3.08;;;15.00;99.90;;;;;;5034573;28;20104;-86
2022/09/05 01:23:08;;;;;;;4.35;2.60;;;15.10;99.90;;;;;;5033588;28;20033;-86
2022/09/05 01:25:33;;;;;;;;;;;15.10;99.90;;;;;;5046767;28;20045;-87
2022/09/05 01:28:41;;;;;;;5.82;3.35;;;15.00;99.90;;;;;;5019084;28;19935;-87
2022/09/05 01:31:25;;;;;;;4.82;3.83;;;15.10;99.90;;;;;;5036509;28;20025;-85
2022/09/05 01:34:13;;;;;;;3.45;2.92;;;15.20;99.90;;;;;;5015458;28;20044;-86
2022/09/05 01:36:51;;;;;;;3.22;2.75;;;15.10;99.90;;;;;;5032569;28;20087;-86
2022/09/05 01:40:03;;;;;;;6.70;3.83;;;15.10;99.90;;;;;;5034042;28;20032;-87
2022/09/05 01:43:03;;;;;;;5.05;3.20;;;15.10;99.90;;;;;;5053828;28;20040;-87
2022/09/05 01:45:59;;;;;;;3.72;3.08;;;15.00;99.90;;;;;;5032436;28;20036;-86
2022/09/05 01:48:55;;;;;;;3.72;3.30;;;15.00;99.90;;;;;;5040056;28;20518;-86
2022/09/05 01:51:35;;;;;;;3.03;2.70;;;15.00;99.90;;;;;;5043377;28;20037;-86
2022/09/05 01:54:17;;;;;;;14.43;6.60;;;15.00;99.90;;;;;;5041952;28;20082;-86
2022/09/05 01:57:04;;;;;;;;;;;14.90;99.90;;;;;;5037314;28;20488;-86
2022/09/05 01:59:38;;;;;;;4.43;3.00;;;14.90;99.90;;;;;;5030815;28;19913;-87
2022/09/05 02:02:35;;;;;;;4.18;2.92;;;14.80;99.90;;;;;;5020406;28;20385;-87
2022/09/05 02:05:01;;;;;;;4.55;3.25;;;14.70;99.90;;;;;;5049397;28;20535;-86
2022/09/05 02:07:47;;;;;;;7.32;3.20;;;14.80;99.90;;;;;;5038974;28;20025;-86
2022/09/05 02:11:07;;;;;;;2.88;2.63;;;14.70;99.90;;;;;;5041294;28;20029;-86
2022/09/05 02:13:33;;;;;;;3.47;2.97;;;14.70;99.90;;;;;;5035003;28;20029;-86
2022/09/05 02:16:30;;;;;;;4.68;3.05;;;14.70;99.90;;;;;;5025453;28;20037;-86
2022/09/05 02:19:08;;;;;;;5.22;3.40;;;14.70;99.90;;;;;;5034715;28;20032;-86
2022/09/05 02:22:13;;;;;;;5.47;3.40;;;14.60;99.90;;;;;;5054377;23;20048;-86
2022/09/05 02:24:46;;;;;;;3.90;2.90;;;14.50;99.90;;;;;;5022207;28;20029;-87
2022/09/05 02:27:33;;;;;;;4.15;3.08;;;14.60;99.90;;;;;;5050357;28;20118;-87
2022/09/05 02:30:13;;;;;;;6.28;3.65;;;14.60;99.90;;;;;;5026463;28;20136;-86
2022/09/05 02:33:13;;;;;;;3.92;3.20;;;14.60;99.90;;;;;;5007412;28;20022;-87
2022/09/05 02:36:31;;;;;;;4.20;3.50;;;14.60;99.90;;;;;;5047166;28;20039;-86
2022/09/05 02:39:55;;;;;;;4.20;3.17;;;14.80;99.90;;;;;;5011211;28;20049;-86
2022/09/05 02:46:15;;;;;;;;;;;;;;;;;;;;;
2022/09/05 02:50:02;;;;;;;3.47;2.67;;;14.60;99.90;;;;;;5037078;28;20033;-86
2022/09/05 02:52:31;;;;;;;4.18;3.05;;;14.60;99.90;;;;;;5040060;28;20033;-87
2022/09/05 02:55:25;;;;;;;4.82;3.45;;;14.60;99.90;;;;;;5040951;28;20029;-86
2022/09/05 02:58:34;;;;;;;5.18;3.38;;;14.60;99.90;;;;;;5034092;28;20067;-86
2022/09/05 03:01:08;;;;;;;5.43;2.72;;;14.60;99.90;;;;;;5017546;28;20083;-86
2022/09/05 03:03:37;;;;;;;4.35;3.22;;;14.70;99.90;;;;;;5035677;28;20033;-86
2022/09/05 03:06:24;;;;;;;6.13;3.10;;;14.70;99.90;;;;;;5032780;28;20029;-87
2022/09/05 03:08:55;;;;;;;3.90;3.17;;;14.60;99.90;;;;;;5037177;28;20035;-86
2022/09/05 03:12:04;;;;;;;5.38;3.40;;;14.60;99.90;;;;;;5033046;28;20247;-86
2022/09/05 03:14:47;;;;;;;4.50;3.03;;;14.60;99.90;;;;;;4986965;28;20037;-86
2022/09/05 03:17:45;;;;;;;5.32;3.15;;;14.70;99.90;;;;;;5039416;28;20049;-86
2022/09/05 03:20:52;;;;;;;4.05;3.40;;;14.70;99.90;;;;;;5025809;28;20119;-87
2022/09/05 03:23:21;;;;;;;6.88;3.58;;;14.60;99.90;;;;;;5033755;28;20030;-87
2022/09/05 03:25:49;;;;;;;3.85;3.30;;;14.50;99.90;;;;;;5028175;28;20060;-86
2022/09/05 03:28:49;;;;;;;4.22;3.40;;;14.50;99.90;;;;;;5030779;28;20507;-86
2022/09/05 03:31:47;;;;;;;8.73;3.88;;;14.50;99.90;;;;;;5014602;28;20079;-86
2022/09/05 03:34:57;;;;;;;4.32;3.63;;;14.50;99.90;;;;;;5040738;28;20137;-86
2022/09/05 03:37:59;;;;;;;5.07;3.50;;;14.50;99.90;;;;;;5029569;28;20146;-87
2022/09/05 03:40:52;;;;;;;5.95;3.40;;;14.50;99.90;;;;;;5037050;28;20714;-86
2022/09/05 03:43:40;;;;;;;4.60;3.55;;;14.50;99.90;;;;;;5021555;28;20549;-87
2022/09/05 03:46:14;;;;;;;4.15;3.13;;;14.50;99.90;;;;;;5048731;28;20163;-86
2022/09/05 03:49:10;;;;;;;4.18;3.08;;;14.50;99.90;;;;;;5037268;28;20514;-87
2022/09/05 03:51:57;;;;;;;3.60;2.90;;;14.50;99.90;;;;;;5038420;28;20094;-86
2022/09/05 03:54:48;;;;;;;3.88;3.28;;;14.50;99.90;;;;;;5031683;28;20480;-87
2022/09/05 03:57:58;;;;;;;6.40;3.10;;;14.40;99.90;;;;;;5049085;28;20139;-86
2022/09/05 04:00:53;;;;;;;4.50;3.70;;;14.40;99.90;;;;;;5018025;28;20487;-86
2022/09/05 04:03:46;;;;;;;5.90;3.45;;;14.50;99.90;;;;;;5015929;28;20041;-87
2022/09/05 04:06:37;;;;;;;5.07;3.50;;;14.40;99.90;;;;;;5011767;28;20094;-87
2022/09/05 04:09:47;;;;;;;5.95;4.25;;;14.40;99.90;;;;;;4999051;28;20037;-86
2022/09/05 04:12:46;;;;;;;6.10;3.17;;;14.50;99.90;;;;;;4959701;28;20030;-86
2022/09/05 04:15:21;;;;;;;5.65;3.42;;;14.40;99.90;;;;;;4965836;28;20506;-86
2022/09/05 04:17:53;;;;;;;7.10;3.42;;;14.40;99.90;;;;;;5020738;28;20108;-87
2022/09/05 04:20:42;;;;;;;6.18;3.08;;;14.40;99.90;;;;;;5001761;28;20056;-87
2022/09/05 04:23:50;;;;;;;4.13;3.33;;;14.30;99.90;;;;;;5034096;28;20040;-86
2022/09/05 04:26:44;;;;;;;7.80;3.80;;;14.40;99.90;;;;;;5010434;28;20075;-87
2022/09/05 04:29:56;;;;;;;4.18;3.28;;;14.50;99.90;;;;;;5041552;28;20765;-86
2022/09/05 04:33:28;;;;;;;4.18;3.38;;;14.50;99.90;;;;;;5043758;23;20120;-85
2022/09/05 04:36:03;;;;;;;4.15;2.85;;;14.60;99.90;;;;;;4976875;28;20061;-86
2022/09/05 04:38:47;;;;;;;7.95;3.22;;;14.60;99.90;;;;;;4988948;28;20034;-86
2022/09/05 04:41:19;;;;;;;4.32;3.17;;;14.60;99.90;;;;;;5049434;28;20048;-87
2022/09/05 04:43:50;;;;;;;3.65;3.17;;;14.70;99.90;;;;;;5032412;28;20029;-87
2022/09/05 04:46:32;;;;;;;3.47;2.78;;;14.70;99.90;;;;;;5047737;28;20174;-86
2022/09/05 04:48:57;;;;;;;5.53;3.25;;;14.70;99.90;;;;;;5060002;28;20020;-86
2022/09/05 04:51:42;;;;;;;5.00;2.90;;;14.70;99.90;;;;;;5052808;28;20403;-86
2022/09/05 04:54:38;;;;;;;5.57;3.45;;;14.70;99.90;;;;;;5050415;28;20070;-86
2022/09/05 04:57:07;;;;;;;7.05;2.97;;;14.70;99.90;;;;;;5045123;28;20029;-87
2022/09/05 04:59:52;;;;;;;3.47;3.10;;;14.60;99.90;;;;;;5022717;28;20033;-86
2022/09/05 05:02:35;;;;;;;4.28;3.30;;;14.60;99.90;;;;;;5063630;28;20646;-87
2022/09/05 05:05:15;;;;;;;3.92;2.88;;;14.50;99.90;;;;;;5066109;28;20063;-86
2022/09/05 05:07:49;;;;;;;3.38;3.03;;;14.40;99.90;;;;;;5063144;28;20036;-87
2022/09/05 05:10:27;;;;;;;4.00;2.90;;;14.40;99.90;;;;;;5044940;28;20494;-86
2022/09/05 05:12:59;;;;;;;5.15;3.40;;;14.40;99.90;;;;;;5025653;28;20041;-87
2022/09/05 05:15:27;;;;;;;5.07;3.40;;;14.50;99.90;;;;;;5062710;28;20044;-86
2022/09/05 05:18:25;;;;;;;3.88;3.30;;;14.50;99.90;;;;;;5042501;28;20090;-87
2022/09/05 05:20:57;;;;;;;4.07;3.42;;;14.70;99.90;;;;;;5045282;28;20384;-88
2022/09/05 05:23:31;;;;;;;4.55;3.15;;;14.80;99.90;;;;;;5047376;28;20044;-86
2022/09/05 05:26:01;;;;;;;5.57;3.03;;;14.90;99.90;;;;;;5048786;28;20478;-86
2022/09/05 05:29:11;;;;;;;8.23;3.92;;;15.00;99.90;;;;;;5056641;28;20032;-87
2022/09/05 05:31:46;;;;;;;4.38;3.20;;;15.10;99.90;;;;;;5042755;28;20487;-86
2022/09/05 05:34:42;;;;;;;3.78;2.88;;;15.20;99.90;;;;;;5029872;28;20207;-85
2022/09/05 05:37:30;;;;;;;4.25;2.63;;;15.30;99.90;;;;;;5059143;28;20048;-86
2022/09/05 05:40:08;;;;;;;3.60;2.92;;;15.30;99.90;;;;;;5025736;28;20029;-86
2022/09/05 05:42:43;;;;;;;4.97;3.28;;;15.40;99.90;;;;;;5040928;28;20090;-86
2022/09/05 05:45:23;;;;;;;7.85;3.42;;;15.40;99.90;;;;;;5060307;28;20020;-87
2022/09/05 05:48:18;;;;;;;6.05;3.50;;;15.50;99.90;;;;;;5031970;28;20760;-87
2022/09/05 05:51:26;;;;;;;4.43;2.80;;;15.60;99.90;;;;;;5012443;28;20044;-85
2022/09/05 05:53:58;;;;;;;4.13;3.05;;;15.70;99.90;;;;;;5035550;28;20132;-87
2022/09/05 05:56:49;;;;;;;7.20;3.10;;;15.90;99.90;;;;;;5041018;28;20028;-86
2022/09/05 05:59:55;;;;;;;5.67;3.53;;;16.00;99.90;;;;;;5047536;28;20025;-86
2022/09/05 06:02:40;;;;;;;3.58;2.70;;;16.20;99.90;;;;;;5043997;28;20392;-86
2022/09/05 06:05:40;;;;;;;5.00;2.92;;;16.30;99.90;;;;;;5067622;28;20021;-86
2022/09/05 06:08:26;;;;;;;3.63;2.80;;;16.40;99.90;;;;;;5056877;28;20024;-86
2022/09/05 06:11:22;;;;;;;4.57;2.80;;;16.60;99.90;;;;;;5067376;28;20040;-86
2022/09/05 06:14:15;;;;;;;4.32;3.10;;;16.80;99.90;;;;;;5065015;28;20025;-86
2022/09/05 06:16:56;;;;;;;3.55;2.70;;;16.80;99.90;;;;;;5050283;28;20025;-86
2022/09/05 06:19:49;;;;;;;4.00;2.53;;;16.90;99.90;;;;;;5067968;28;20037;-85
2022/09/05 06:22:34;;;;;;;4.00;2.88;;;16.90;99.90;;;;;;5048867;28;20040;-86
2022/09/05 06:25:27;;;;;;;6.60;3.78;;;17.00;99.90;;;;;;5069827;28;20099;-86
2022/09/05 06:28:44;;;;;;;5.90;2.67;;;17.10;99.90;;;;;;5063785;28;20538;-89
2022/09/05 06:31:35;;;;;;;3.83;2.78;;;17.20;99.90;;;;;;5065145;28;20551;-87
2022/09/05 06:34:32;;;;;;;3.95;2.42;;;17.30;99.90;;;;;;5061220;28;20025;-86
2022/09/05 06:37:09;;;;;;;3.95;2.25;;;17.50;99.90;;;;;;5050027;28;20059;-87
2022/09/05 06:39:40;;;;;;;5.68;2.70;;;17.70;99.90;;;;;;5053532;28;20750;-87
2022/09/05 06:42:26;;;;;;;4.13;2.65;;;17.80;99.90;;;;;;5068935;28;20029;-86
2022/09/05 06:45:26;;;;;;;3.53;2.45;;;17.90;99.90;;;;;;5039058;28;20064;-86
2022/09/05 06:48:02;;;;;;;3.83;2.60;;;18.00;99.90;;;;;;5052452;28;20032;-86
2022/09/05 06:50:49;;;;;;;3.67;2.90;;;18.20;99.90;;;;;;5067143;28;20116;-86
2022/09/05 06:53:41;;;;;;;8.63;2.55;;;18.40;99.90;;;;;;5033407;28;20028;-85
2022/09/05 07:00:19;;;;;;;3.80;2.38;;;18.70;99.90;;;;;;5012159;28;20037;-86
2022/09/05 07:03:09;;;;;;;5.93;2.30;;;18.90;99.90;;;;;;4994176;28;20037;-86
2022/09/05 07:05:57;;;;;;;3.15;2.38;;;19.00;99.90;;;;;;5069248;28;20096;-87
2022/09/05 07:08:46;;;;;;;2.10;1.90;;;19.00;99.90;;;;;;5057092;28;20077;-86
2022/09/05 07:11:21;;;;;;;3.78;2.30;;;19.10;99.90;;;;;;5064291;28;20028;-89
2022/09/05 07:14:16;;;;;;;2.83;2.47;;;19.20;99.90;;;;;;5082297;28;20032;-87
2022/09/05 07:16:50;;;;;;;7.90;3.65;;;19.40;99.90;;;;;;5033543;28;20066;-87
2022/09/05 07:19:45;;;;;;;5.10;2.38;;;19.60;99.90;;;;;;5067509;28;20132;-87
2022/09/05 07:22:37;;;;;;;5.43;2.20;;;19.70;99.90;;;;;;5052374;28;20032;-87
2022/09/05 07:25:28;;;;;;;3.42;2.03;;;19.90;99.90;;;;;;5081915;28;20047;-88
2022/09/05 07:27:53;;;;;;;6.18;2.17;;;20.00;99.90;;;;;;5067682;28;20957;-87
2022/09/05 07:30:27;;;;;;;4.22;2.42;;;20.10;99.90;;;;;;5067462;28;20021;-87
2022/09/05 07:32:55;;;;;;;6.55;2.40;;;20.20;99.90;;;;;;5071514;28;20024;-87
2022/09/05 07:35:49;;;;;;;4.05;2.22;;;20.30;99.90;;;;;;5085361;28;20056;-87
2022/09/05 07:38:27;;;;;;;6.03;2.45;;;20.30;99.90;;;;;;5063947;28;20043;-87
2022/09/05 07:41:22;;;;;;;3.40;2.22;;;20.50;99.90;;;;;;5049264;28;20863;-87
2022/09/05 07:44:23;;;;;;;2.83;1.92;;;20.60;99.90;;;;;;5072086;28;20070;-86
2022/09/05 07:47:05;;;;;;;4.63;1.83;;;20.60;99.90;;;;;;5026696;28;20135;-87
2022/09/05 07:49:35;;;;;;;4.78;1.98;;;20.80;99.90;;;;;;5054181;28;20024;-88
2022/09/05 07:52:17;;;;;;;5.40;1.92;;;20.90;99.90;;;;;;5053811;28;20467;-87
2022/09/05 07:54:45;;;;;;;2.28;1.90;;;20.90;99.90;;;;;;5061830;28;20017;-86
2022/09/05 07:57:40;;;;;;;3.95;2.17;;;21.00;99.90;;;;;;5052725;28;20020;-86
2022/09/05 08:00:11;;;;;;;4.82;2.20;;;21.00;99.90;;;;;;5046550;28;20029;-86
2022/09/05 08:02:46;;;;;;;3.70;2.55;;;21.10;99.90;;;;;;5065305;28;20033;-86
2022/09/05 08:05:21;;;;;;;5.22;2.13;;;21.20;99.90;;;;;;5069541;28;20035;-86
2022/09/05 08:08:12;;;;;;;5.45;2.28;;;21.30;99.90;;;;;;5044504;28;20040;-87
2022/09/05 08:11:00;;;;;;;3.33;1.70;;;21.40;99.90;;;;;;5047033;28;20032;-86
2022/09/05 08:13:54;;;;;;;3.30;2.08;;;21.40;99.90;;;;;;5042236;28;20055;-87
2022/09/05 08:16:22;;;;;;;4.43;2.08;;;21.40;99.90;;;;;;5056412;28;20047;-86
2022/09/05 08:19:14;;;;;;;3.70;2.40;;;21.50;99.90;;;;;;5063168;28;20036;-86
2022/09/05 08:21:45;;;;;;;2.53;1.75;;;21.60;99.90;;;;;;5053948;28;20040;-87
2022/09/05 08:24:31;;;;;;;2.88;2.10;;;21.70;99.90;;;;;;5063050;28;20031;-86
2022/09/05 08:27:25;;;;;;;4.65;1.75;;;21.70;99.90;;;;;;5044647;28;20117;-86
2022/09/05 08:30:06;;;;;;;2.58;1.83;;;21.90;99.90;;;;;;5060355;28;20418;-87
2022/09/05 08:32:47;;;;;;;4.70;2.03;;;22.00;99.90;;;;;;5054326;28;20111;-86
2022/09/05 08:35:39;;;;;;;2.95;2.05;;;22.10;99.90;;;;;;5051067;28;20408;-86
2022/09/05 08:38:14;;;;;;;8.48;2.00;;;22.20;99.90;;;;;;5051583;28;20439;-86
2022/09/05 08:41:04;;;;;;;3.15;1.65;;;22.30;99.90;;;;;;5071586;28;20032;-87
2022/09/05 08:43:59;;;;;;;4.55;1.80;;;22.50;99.90;;;;;;5050217;28;20122;-87
2022/09/05 08:46:59;;;;;;;3.53;1.83;;;22.60;99.90;;;;;;5058534;28;20056;-87
2022/09/05 08:50:13;;;;;;;4.25;1.83;;;22.60;99.90;;;;;;5044629;28;20052;-87
2022/09/05 08:52:55;;;;;;;3.78;1.88;;;23.20;99.90;;;;;;5054845;28;20951;-86
2022/09/05 08:55:39;;;;;;;;;;;25.30;99.90;;;;;;5030366;28;20386;-87
2022/09/05 08:58:20;;;;;;;3.28;1.73;;;27.00;99.90;;;;;;5050177;28;19915;-87
2022/09/05 09:01:00;;;;;;;2.85;1.38;;;27.80;99.90;;;;;;5050857;28;20048;-88
2022/09/05 09:03:47;;;;;;;4.85;2.13;;;28.60;99.90;;;;;;5052739;28;20060;-88
2022/09/05 09:06:22;;;;;;;2.50;1.88;;;29.00;98.80;;;;;;5055623;28;20206;-88
2022/09/05 09:09:08;;;;;;;2.95;1.63;;;29.30;96.60;;;;;;5067822;28;20028;-86
2022/09/05 09:12:02;;;;;;;3.13;1.48;;;29.20;96.00;;;;;;5046726;28;20040;-87
2022/09/05 09:14:58;;;;;;;4.35;1.63;;;29.50;94.20;;;;;;5046106;28;20028;-87
2022/09/05 09:17:44;;;;;;;1.88;1.40;;;29.00;94.00;;;;;;5059570;28;20037;-85
2022/09/05 09:20:51;;;;;;;3.65;1.55;;;28.70;94.70;;;;;;5050664;28;20036;-85
2022/09/05 09:23:46;;;;;;;3.25;1.45;;;28.00;94.30;;;;;;5067907;28;20056;-87
2022/09/05 09:26:41;;;;;;;4.63;2.03;;;28.50;95.50;;;;;;5045073;28;20107;-87
2022/09/05 09:29:12;;;;;;;3.17;1.63;;;28.70;94.00;;;;;;5041709;28;20101;-86
2022/09/05 09:31:46;;;;;;;5.43;1.40;;;27.80;94.90;;;;;;5026360;28;20103;-84
2022/09/05 09:34:24;;;;;;;8.93;2.05;;;27.50;95.20;;;;;;5039335;28;20033;-86
2022/09/05 09:37:15;;;;;;;4.03;1.77;;;27.00;96.10;;;;;;5057696;28;20399;-85
2022/09/05 09:39:44;;;;;;;8.30;1.65;;;27.00;96.70;;;;;;5058942;28;20029;-84
2022/09/05 09:42:40;;;;;;;4.03;1.73;;;27.40;97.10;;;;;;5045033;28;20032;-86
2022/09/05 09:45:53;;;;;;;3.88;1.90;;;27.20;96.90;;;;;;5064333;28;20546;-86
2022/09/05 09:49:09;;;;;;;2.47;1.92;;;27.80;96.90;;;;;;5048815;28;20501;-86
2022/09/05 09:52:18;;;;;;;1.92;1.60;;;28.30;95.20;;;;;;5035007;28;20039;-85
2022/09/05 09:55:11;;;;;;;2.25;1.50;;;28.20;94.80;;;;;;5036500;28;20049;-86
2022/09/05 09:57:56;;;;;;;2.45;1.63;;;28.70;94.70;;;;;;5027483;28;20052;-88
2022/09/05 10:00:49;;;;;;;3.58;1.80;;;29.70;93.80;;;;;;5040360;28;20029;-86
2022/09/05 10:03:58;;;;;;;1.92;1.73;;;30.30;91.80;;;;;;5058403;28;20139;-85
2022/09/05 10:07:09;;;;;;;1.67;1.58;;;29.40;92.30;;;;;;5061087;28;20029;-86
2022/09/05 10:09:50;;;;;;;2.47;1.52;;;29.80;91.20;;;;;;5065897;28;20028;-86
2022/09/05 10:12:21;;;;;;;4.28;1.60;;;30.50;90.60;;;;;;5042587;28;20029;-85
2022/09/05 10:15:13;;;;;;;4.00;2.20;;;30.10;90.50;;;;;;5057506;28;20025;-86
2022/09/05 10:18:03;;;;;;;3.67;1.83;;;29.20;90.40;;;;;;5051176;28;20029;-85
2022/09/05 10:21:00;;;;;;;2.73;1.57;;;28.90;91.40;;;;;;5028172;28;20033;-86
2022/09/05 10:24:05;;;;;;;3.97;1.77;;;28.50;92.00;;;;;;5067725;28;20282;-85
2022/09/05 10:26:52;;;;;;;5.55;2.20;;;27.70;91.90;;;;;;5069473;28;20036;-86
2022/09/05 10:29:30;;;;;;;3.63;2.33;;;27.10;92.60;;;;;;5047201;28;20208;-87
2022/09/05 10:32:51;;;;;;;2.67;1.92;;;26.80;93.20;;;;;;5037567;28;20021;-87
2022/09/05 10:35:27;;;;;;;2.38;1.83;;;26.20;94.30;;;;;;5004321;28;20036;-85
2022/09/05 10:38:15;;;;;;;4.32;1.90;;;26.00;94.80;;;;;;5064580;28;20048;-87
2022/09/05 10:40:57;;;;;;;4.03;2.00;;;25.80;94.80;;;;;;5066261;28;20667;-87
2022/09/05 10:43:29;;;;;;;2.47;1.83;;;25.50;95.60;;;;;;5064112;28;20036;-87
2022/09/05 10:45:55;;;;;;;2.58;2.10;;;25.20;95.40;;;;;;5068554;28;20068;-86
2022/09/05 10:48:47;;;;;;;3.05;1.92;;;25.20;96.00;;;;;;5069067;28;20056;-87
2022/09/05 10:51:34;;;;;;;2.05;1.80;;;25.00;95.70;;;;;;5051730;28;20055;-85
2022/09/05 10:54:34;;;;;;;3.47;2.10;;;24.90;96.90;;;;;;5067427;28;20032;-86
2022/09/05 10:57:32;;;;;;;2.30;1.85;;;24.60;96.90;;;;;;5066651;28;20664;-86
2022/09/05 11:00:37;;;;;;;2.38;1.92;;;24.60;97.50;;;;;;5053286;28;20052;-85
2022/09/05 11:03:19;;;;;;;4.93;2.17;;;24.60;98.30;;;;;;5065278;28;20033;-86
2022/09/05 11:06:10;;;;;;;5.50;1.80;;;24.80;98.20;;;;;;5046622;28;20029;-86
2022/09/05 11:09:03;;;;;;;3.58;2.22;;;25.00;98.10;;;;;;5065727;28;20575;-86
2022/09/05 11:11:44;;;;;;;3.30;1.75;;;25.40;97.30;;;;;;5081324;28;20044;-86
2022/09/05 11:14:54;;;;;;;4.85;2.00;;;25.50;97.00;;;;;;5039683;28;20124;-86
2022/09/05 11:17:55;;;;;;;2.67;1.90;;;25.80;97.20;;;;;;5055274;28;20102;-86
2022/09/05 11:20:32;;;;;;;4.33;2.13;;;26.10;96.10;;;;;;5063831;28;20028;-86
2022/09/05 11:23:30;;;;;;;4.50;1.92;;;26.00;96.40;;;;;;5070914;28;20304;-86
2022/09/05 11:26:06;;;;;;;2.50;1.90;;;26.40;95.30;;;;;;5070651;28;20052;-86
2022/09/05 11:28:47;;;;;;;3.10;1.98;;;27.70;95.10;;;;;;5052077;28;20454;-86
2022/09/05 11:31:20;;;;;;;;;;;29.00;93.20;;;;;;5067452;28;20048;-87
2022/09/05 11:34:13;;;;;;;2.88;1.63;;;29.60;91.30;;;;;;5045365;28;19977;-87
2022/09/05 11:36:51;;;;;;;3.22;1.80;;;29.50;91.90;;;;;;5046410;28;20032;-86
2022/09/05 11:39:20;;;;;;;3.35;1.90;;;29.40;90.00;;;;;;5064265;28;20024;-87
2022/09/05 11:42:08;;;;;;;2.00;1.60;;;29.50;91.00;;;;;;5041540;28;20431;-87
2022/09/05 11:45:00;;;;;;;1.60;1.48;;;30.00;89.60;;;;;;5054744;28;20112;-88
2022/09/05 11:47:44;;;;;;;1.58;1.38;;;30.10;89.50;;;;;;5065696;28;20568;-87
2022/09/05 11:50:44;;;;;;;5.88;1.77;;;29.40;86.30;;;;;;5048444;28;20028;-84
2022/09/05 11:53:40;;;;;;;3.78;1.50;;;29.50;88.00;;;;;;5056910;28;20038;-87
2022/09/05 11:56:32;;;;;;;2.97;1.90;;;29.60;87.20;;;;;;5066879;28;20033;-87
2022/09/05 11:59:26;;;;;;;2.45;1.73;;;29.60;86.60;;;;;;5049564;28;20127;-86
2022/09/05 12:02:22;;;;;;;2.22;1.70;;;29.80;87.70;;;;;;5065168;28;20440;-85
2022/09/05 12:05:54;;;;;;;1.80;1.65;;;29.20;86.60;;;;;;5047732;28;20029;-86
2022/09/05 12:09:00;;;;;;;5.68;1.70;;;30.10;84.50;;;;;;4993762;28;20022;-87
2022/09/05 12:11:47;;;;;;;2.50;1.70;;;30.20;83.90;;;;;;4990168;28;20568;-86
2022/09/05 12:14:35;;;;;;;3.05;1.60;;;30.00;81.60;;;;;;5041208;28;20223;-85
2022/09/05 12:17:36;;;;;;;2.00;1.70;;;29.90;80.30;;;;;;5041724;28;20024;-86
2022/09/05 12:20:11;;;;;;;2.22;1.73;;;29.60;83.00;;;;;;5048084;28;20028;-88
2022/09/05 12:22:42;;;;;;;3.78;1.90;;;30.10;82.60;;;;;;5048247;28;20082;-87
2022/09/05 12:25:17;;;;;;;3.90;2.00;;;29.60;81.50;;;;;;5047454;28;20037;-87
2022/09/05 12:27:56;;;;;;;4.60;1.67;;;29.30;80.20;;;;;;5044238;28;20238;-85
2022/09/05 12:30:32;;;;;;;3.70;1.88;;;29.30;80.90;;;;;;5066985;28;20047;-88
2022/09/05 12:33:22;;;;;;;2.33;1.40;;;29.30;81.20;;;;;;5050541;28;20131;-85
2022/09/05 12:36:10;;;;;;;1.92;1.58;;;29.30;79.00;;;;;;5034715;28;20106;-86
2022/09/05 12:38:54;;;;;;;2.58;1.67;;;29.10;74.70;;;;;;5071381;28;20024;-86
2022/09/05 12:41:23;;;;;;;2.97;1.75;;;29.10;78.30;;;;;;5052215;28;20028;-86
2022/09/05 12:44:01;;;;;;;2.58;1.75;;;29.10;80.30;;;;;;5069017;28;20024;-86
2022/09/05 12:46:48;;;;;;;2.63;1.60;;;29.40;81.40;;;;;;5048486;28;20032;-84
2022/09/05 12:49:39;;;;;;;1.80;1.65;;;29.30;79.60;;;;;;5045191;28;20116;-86
2022/09/05 12:52:13;;;;;;;4.05;1.90;;;29.00;79.90;;;;;;5061678;28;20431;-86
2022/09/05 12:54:56;;;;;;;3.08;1.70;;;28.70;77.70;;;;;;5054095;28;20028;-87
2022/09/05 12:57:33;;;;;;;6.45;2.40;;;28.50;76.80;;;;;;5053017;28;20024;-87
2022/09/05 13:00:09;;;;;;;3.72;1.77;;;28.70;77.80;;;;;;5068731;28;20056;-86
2022/09/05 13:02:45;;;;;;;3.30;2.13;;;28.30;79.80;;;;;;5053612;28;20041;-87
2022/09/05 13:05:24;;;;;;;4.70;2.00;;;27.90;80.00;;;;;;5062221;28;20059;-87
2022/09/05 13:08:01;;;;;;;2.90;1.98;;;27.50;81.90;;;;;;5065074;28;20040;-87
2022/09/05 13:13:52;;;;;;;3.67;2.00;;;28.90;81.10;;;;;;5051183;23;20053;-86
2022/09/05 13:16:22;;;;;;;7.05;2.10;;;29.50;78.80;;;;;;5010504;28;20037;-87
2022/09/05 13:19:01;;;;;;;6.80;2.15;;;30.10;76.20;;;;;;5029164;28;20032;-86
2022/09/05 13:21:51;;;;;;;1.90;1.70;;;29.90;76.00;;;;;;5021681;28;20072;-85
2022/09/05 13:24:46;;;;;;;2.05;1.63;;;29.40;74.60;;;;;;5029037;28;20037;-87
2022/09/05 13:27:28;;;;;;;3.33;1.90;;;29.50;75.90;;;;;;5028527;28;20084;-87
2022/09/05 13:30:01;;;;;;;5.35;1.85;;;30.00;74.50;;;;;;5002059;28;20119;-88
2022/09/05 13:32:40;;;;;;;5.03;1.75;;;30.50;76.50;;;;;;5018000;28;20124;-87
2022/09/05 13:35:35;;;;;;;3.53;1.75;;;30.80;72.90;;;;;;5035685;28;20060;-87
2022/09/05 13:38:15;;;;;;;4.20;1.90;;;30.60;73.50;;;;;;5022021;28;20476;-87
2022/09/05 13:41:02;;;;;;;3.05;1.67;;;30.30;74.50;;;;;;5012844;28;20041;-85
2022/09/05 13:43:36;;;;;;;2.78;2.00;;;29.90;74.80;;;;;;5028770;28;20041;-86
2022/09/05 13:46:22;;;;;;;3.08;1.75;;;29.50;75.40;;;;;;5035551;28;20828;-86
2022/09/05 13:49:39;;;;;;;5.85;2.13;;;28.90;78.00;;;;;;5013216;28;20045;-86
2022/09/05 13:52:46;;;;;;;3.78;2.50;;;28.60;76.90;;;;;;5021211;28;20053;-86
2022/09/05 13:55:34;;;;;;;3.78;2.05;;;28.20;77.50;;;;;;5028917;28;20125;-86
2022/09/05 13:58:13;;;;;;;5.18;2.03;;;27.80;77.10;;;;;;5026519;28;20884;-84
2022/09/05 14:01:08;;;;;;;3.00;1.88;;;27.20;77.40;;;;;;5011835;28;20034;-84
2022/09/05 14:04:21;;;;;;;4.20;2.30;;;27.00;80.70;;;;;;5033913;28;20017;-87
2022/09/05 14:07:13;;;;;;;2.22;2.00;;;27.00;80.00;;;;;;4978329;28;20743;-86
2022/09/05 14:10:06;;;;;;;4.63;1.90;;;27.10;81.00;;;;;;5031583;28;20037;-86
2022/09/05 14:12:39;;;;;;;2.67;2.33;;;27.10;78.30;;;;;;5013716;28;20475;-87
2022/09/05 14:15:30;;;;;;;4.75;2.03;;;27.00;79.40;;;;;;5031145;28;20034;-86
2022/09/05 14:18:04;;;;;;;4.88;2.45;;;27.10;80.80;;;;;;5012333;28;20021;-87
2022/09/05 14:23:42;;;;;;;2.58;2.17;;;27.10;80.00;;;;;;5025041;28;20033;-86
2022/09/05 14:26:30;;;;;;;2.95;1.95;;;27.20;79.00;;;;;;5018965;28;20034;-86
2022/09/05 14:29:17;;;;;;;2.75;1.98;;;27.10;79.10;;;;;;5044779;28;20029;-86
2022/09/05 14:32:23;;;;;;;2.15;1.85;;;27.00;79.90;;;;;;5033104;28;20637;-87
2022/09/05 14:34:55;;;;;;;4.63;1.80;;;26.80;79.80;;;;;;5028556;28;20136;-86
2022/09/05 14:37:49;;;;;;;5.13;1.95;;;26.50;76.70;;;;;;5034339;28;20025;-86
2022/09/05 14:40:53;;;;;;;3.80;2.10;;;26.50;77.50;;;;;;4994924;28;20500;-84
2022/09/05 14:43:40;;;;;;;5.22;1.90;;;26.70;78.70;;;;;;5013976;28;20049;-86
2022/09/05 14:46:27;;;;;;;3.80;1.70;;;26.90;75.70;;;;;;5033853;28;20044;-85
2022/09/05 14:49:11;;;;;;;4.82;1.77;;;27.00;74.50;;;;;;5014724;28;20038;-86